Pagrindinis puslapis
METAR-TAF:

METAR-TAF

Oro uostai :

Samsunas, Turkija

platuma: 41-15-15N, ilguma: 036-34-03E, Aukštis: 5 m

Dabartinis oras

Ataskaita buvo paskelbta 24 minutes, ne 00:50 UTC
Vėjas 4 kt iš Rytų, svyruoja nuo Rytų/Šiaurės Rytų ir Rytų/Pietryčių
Temperatūra 16°C
Drėgmė 94%
Slėgis 1011 hPa
Matomumas 10 km arba daugiau
Išsisklaidę debesys ne aukštis 3000 ft
Su prošvaistėmis ne aukštis 10000 ft

METAR: LTFH 170050Z 09004KT 060V120 9999 SCT030 BKN100 16/15 Q1011 RESHRA NOSIG

Laikas: 04:14 (01:14 UTC)

Prognozė

Ataskaita buvo paskelbta 2 valandos ir 34 minutes, ne 22:40 UTC
Prognozė galioja nuo 17 metu 00 UTC su 17 metu 09 UTC
Vėjas 2 kt nuo kintamojo kryptimis
Matomumas 10 km arba daugiau
Išsisklaidę debesys ne aukštis 3000 ft
Su prošvaistėmis ne aukštis 10000 ft
Laikinai
nuo 17 metu 00 UTC su 17 metu 03 UTC
Su prošvaistėmis ne aukštis 2800 ft
Su prošvaistėmis ne aukštis 8000 ft
lietus

TAF: LTFH 162240Z 1700/1709 VRB02KT 9999 SCT030 BKN100 TEMPO 1700/1703 -SHRA BKN028 BKN080

Orai ataskaitas ir orų prognozės (METAR, TAF).

turimą stotys yra geltonos ir raudonos taškus žemėlapyje.

Perkelti pele per norėdami pamatyti stoties vardą.

Tada spustelėkite, norėdami matyti oro stebėjimo ir prognozės.

Norėdami pakeisti žemėlapį: spustelėkite ant žalios mygtukų su juodo kryžiaus žemyn,; žalią mygtuką su brūkšneliu, jei norite nutolinti; arba žalių rodyklių gretimoms žemėlapius.


METAR-TAF: